首页
METAR-TAF:

METAR-TAF

机场 :

Såtenäs, 瑞典

纬度: 58-26N, 经度: 012-42E, 海拔: 54米

当前天气观测

该预报发布于19分钟前的15:50 UTC
风速19节,风向西南
温度 13°C
湿度 51%
气压 1018 hPa
能见度10公里或以上

METAR: ESIB 081550Z AUTO 23019KT 9999 NCD 13/03 Q1018

时间: 18:09 (16:09 UTC)


TAF: 丢失

超过4000个机场的气象观测和天气预报(METAR&TAF报告)。

可查询的气象台以黄色和红色小点在地图上表示。

将鼠标移到小点上方,可查看气象台名称。

然后点击查看天气观测和预报。

如需切换地图:点击带黑十字的绿色按钮放大地图;点击带横线的绿色按钮缩小地图;或者点击绿色箭头查看邻近地区的地图。


METAR-TAF: